Flugwetter

METAR EDDW
2021/01/18 14:20 EDDW 181420Z 24012KT 5000 -RA BR BKN009 BKN012 05/04 Q1016 R88/CLRD// TEMPO 4500
TAF EDDW
2021/01/18 12:27 TAF EDDW 181100Z 1812/1912 23012KT 8000 BKN007 BECMG 1812/1815 BKN013 PROB30 TEMPO 1812/1815 23015G25KT 3000 -RADZ PROB40 TEMPO 1815/1906 3000 -RADZ BKN007 BECMG 1906/1909 21015G25KT BKN008 PROB40 TEMPO 1906/1912 3000 -RADZ BKN004
METAR EDDH
2021/01/18 14:20 EDDH 181420Z 23012KT 6000 -RA BKN007 04/04 Q1014 TEMPO SCT007 BKN011
TAF EDDH
2021/01/18 12:27 TAF EDDH 181100Z 1812/1918 23010KT 8000 BKN007 PROB40 TEMPO 1812/1918 3000 -RADZ BKN004 PROB30 TEMPO 1908/1914 19015G25KT
METAR VRMM
2021/01/18 14:00 VRMM 181400Z 07018KT 9999 FEW017 FEW018CB BKN120 27/24 Q1009 CB NE TEMPO 5000 -SHRA
TAF VRMM
2021/01/18 12:06 TAF VRMM 181100Z 1812/1918 13010KT 9999 FEW018TCU TEMPO 1818/1824 FEW019CB

Quelle:

Bereitgestellt von den Servern der NOAA tgftp.nws.noaa.gov
Alle Angaben ohne Gewähr